Time;durP1;ratioP1;P1;durP2;ratioP2;P2;SDS_P1;SDS_P2;PMS_P1;PMS_P2;Temp;Humidity;BMP_temperature;BMP_pressure;BME280_temperature;BME280_humidity;BME280_pressure;Samples;Min_cycle;Max_cycle;Signal;HPM_P1;HPM_P2
2021/09/21 00:02:13;;;;;;;9.85;7.40;;;12.00;99.90;;;;;;5025244;28;20056;-71
2021/09/21 00:04:41;;;;;;;14.20;9.50;;;12.10;99.90;;;;;;5034847;28;20041;-71
2021/09/21 00:07:08;;;;;;;11.57;8.13;;;12.10;99.90;;;;;;5030317;28;20054;-72
2021/09/21 00:09:35;;;;;;;10.63;7.65;;;12.10;99.90;;;;;;5027567;28;20491;-72
2021/09/21 00:12:03;;;;;;;10.10;7.65;;;12.00;99.90;;;;;;5033634;28;20542;-71
2021/09/21 00:14:30;;;;;;;10.10;8.00;;;12.00;99.90;;;;;;5038487;28;20052;-72
2021/09/21 00:17:02;;;;;;;11.10;7.82;;;12.00;99.90;;;;;;5039382;28;20067;-71
2021/09/21 00:19:32;;;;;;;10.85;7.75;;;12.00;99.90;;;;;;5033122;28;20048;-71
2021/09/21 00:22:01;;;;;;;9.00;6.68;;;12.00;99.90;;;;;;5022771;28;20618;-71
2021/09/21 00:24:28;;;;;;;12.73;7.68;;;12.00;99.90;;;;;;5026984;28;20079;-72
2021/09/21 00:26:56;;;;;;;10.70;7.18;;;12.00;99.90;;;;;;5041973;28;20093;-72
2021/09/21 00:29:23;;;;;;;10.40;7.75;;;11.90;99.90;;;;;;5016809;28;20060;-72
2021/09/21 00:31:59;;;;;;;10.13;7.82;;;11.90;99.90;;;;;;5014595;28;20095;-72
2021/09/21 00:34:42;;;;;;;10.38;7.78;;;11.90;99.90;;;;;;5024819;28;20029;-72
2021/09/21 00:37:11;;;;;;;9.85;7.82;;;11.90;99.90;;;;;;5036632;28;20045;-72
2021/09/21 00:39:39;;;;;;;12.15;8.15;;;11.90;99.90;;;;;;5036112;28;20088;-72
2021/09/21 00:42:08;;;;;;;10.75;8.68;;;11.90;99.90;;;;;;5023366;28;20405;-71
2021/09/21 00:44:36;;;;;;;10.07;7.75;;;11.90;99.90;;;;;;5001877;28;20159;-71
2021/09/21 00:47:05;;;;;;;9.48;7.28;;;11.90;99.90;;;;;;5012140;28;20478;-72
2021/09/21 00:49:33;;;;;;;11.43;7.97;;;11.90;99.90;;;;;;5020814;28;20120;-72
2021/09/21 00:52:02;;;;;;;10.20;8.05;;;11.80;99.90;;;;;;5020932;28;20042;-72
2021/09/21 00:54:30;;;;;;;10.60;7.95;;;11.80;99.90;;;;;;5026563;28;20034;-72
2021/09/21 00:56:58;;;;;;;11.90;8.02;;;11.80;99.90;;;;;;5039146;28;20468;-71
2021/09/21 00:59:26;;;;;;;8.60;6.88;;;11.80;99.90;;;;;;5015405;28;20046;-71
2021/09/21 01:01:53;;;;;;;11.10;7.97;;;11.80;99.90;;;;;;5037661;28;20408;-71
2021/09/21 01:04:21;;;;;;;11.75;7.85;;;11.80;99.90;;;;;;5044421;28;20931;-71
2021/09/21 01:06:48;;;;;;;10.07;7.10;;;11.70;99.90;;;;;;5046241;28;20055;-71
2021/09/21 01:09:20;;;;;;;11.38;7.88;;;11.80;99.90;;;;;;5042856;28;20100;-71
2021/09/21 01:11:50;;;;;;;9.27;7.72;;;11.80;99.90;;;;;;5039981;28;20048;-71
2021/09/21 01:14:18;;;;;;;10.93;8.18;;;11.80;99.90;;;;;;5032194;28;20041;-71
2021/09/21 01:16:47;;;;;;;10.02;8.00;;;11.80;99.90;;;;;;5043306;28;20578;-71
2021/09/21 01:19:16;;;;;;;9.55;7.90;;;11.80;99.90;;;;;;5031276;28;20060;-71
2021/09/21 01:21:44;;;;;;;11.18;8.20;;;11.80;99.90;;;;;;5030523;28;20431;-71
2021/09/21 01:24:14;;;;;;;10.27;7.80;;;11.80;99.90;;;;;;5029673;28;20049;-71
2021/09/21 01:26:42;;;;;;;10.02;7.78;;;11.80;99.90;;;;;;5013069;28;20060;-71
2021/09/21 01:29:11;;;;;;;9.85;7.78;;;11.70;99.90;;;;;;5029642;28;20053;-71
2021/09/21 01:31:40;;;;;;;10.15;8.27;;;11.80;99.90;;;;;;5031452;28;20507;-71
2021/09/21 01:34:08;;;;;;;10.35;7.80;;;11.70;99.90;;;;;;5028964;28;20037;-71
2021/09/21 01:36:36;;;;;;;10.23;7.68;;;11.70;99.90;;;;;;5031492;28;20095;-71
2021/09/21 01:39:03;;;;;;;11.13;7.93;;;11.60;99.90;;;;;;5020923;28;20054;-71
2021/09/21 01:41:30;;;;;;;10.77;8.18;;;11.60;99.90;;;;;;5025139;28;20132;-71
2021/09/21 01:43:58;;;;;;;10.63;8.60;;;11.60;99.90;;;;;;5029274;28;20499;-71
2021/09/21 01:46:25;;;;;;;10.52;8.00;;;11.60;99.90;;;;;;5017922;28;20408;-71
2021/09/21 01:48:53;;;;;;;14.32;8.98;;;11.60;99.90;;;;;;5013988;28;20165;-71
2021/09/21 01:51:31;;;;;;;9.98;8.32;;;11.60;99.90;;;;;;5022923;28;20065;-71
2021/09/21 01:59:12;;;;;;;11.13;8.60;;;11.50;99.90;;;;;;5043829;28;20044;-71
2021/09/21 02:01:39;;;;;;;12.90;9.73;;;11.50;99.90;;;;;;5044887;28;20433;-71
2021/09/21 02:04:08;;;;;;;10.85;8.15;;;11.50;99.90;;;;;;5042118;28;20053;-71
2021/09/21 02:06:38;;;;;;;10.98;7.80;;;11.40;99.90;;;;;;5040157;28;20045;-71
2021/09/21 02:09:08;;;;;;;13.60;9.18;;;11.40;99.90;;;;;;5042352;28;20452;-71
2021/09/21 02:11:36;;;;;;;13.25;8.38;;;11.40;99.90;;;;;;5024228;28;20045;-71
2021/09/21 02:14:07;;;;;;;13.35;9.13;;;11.40;99.90;;;;;;5009592;28;20131;-71
2021/09/21 02:16:35;;;;;;;11.93;9.13;;;11.40;99.90;;;;;;5028547;28;20080;-71
2021/09/21 02:19:02;;;;;;;11.80;8.77;;;11.40;99.90;;;;;;5046369;28;20128;-71
2021/09/21 02:21:30;;;;;;;10.02;8.48;;;11.30;99.90;;;;;;5044347;28;20044;-71
2021/09/21 02:23:59;;;;;;;10.27;8.57;;;11.30;99.90;;;;;;5029545;28;20093;-71
2021/09/21 02:26:27;;;;;;;12.38;8.82;;;11.30;99.90;;;;;;5045096;28;20045;-71
2021/09/21 02:28:54;;;;;;;12.38;9.15;;;11.30;99.90;;;;;;5029085;28;20120;-71
2021/09/21 02:31:22;;;;;;;10.68;8.02;;;11.30;99.90;;;;;;5045572;28;20065;-71
2021/09/21 02:33:50;;;;;;;12.45;8.98;;;11.30;99.90;;;;;;5029368;28;20111;-71
2021/09/21 02:36:18;;;;;;;12.43;8.50;;;11.30;99.90;;;;;;5042481;28;20143;-71
2021/09/21 02:38:45;;;;;;;11.32;8.82;;;11.30;99.90;;;;;;5019049;28;20072;-71
2021/09/21 02:41:13;;;;;;;11.18;8.57;;;11.20;99.90;;;;;;5045305;28;20463;-71
2021/09/21 02:43:41;;;;;;;11.48;8.85;;;11.30;99.90;;;;;;5028039;28;20124;-71
2021/09/21 02:46:08;;;;;;;11.05;8.57;;;11.30;99.90;;;;;;5046115;28;20045;-71
2021/09/21 02:48:35;;;;;;;10.13;8.25;;;11.20;99.90;;;;;;5043621;28;20047;-71
2021/09/21 02:51:03;;;;;;;10.75;8.30;;;11.20;99.90;;;;;;5036324;28;20492;-71
2021/09/21 02:53:30;;;;;;;11.18;8.75;;;11.20;99.90;;;;;;5025825;28;20116;-71
2021/09/21 02:55:58;;;;;;;11.23;8.73;;;11.20;99.90;;;;;;5039723;28;20037;-71
2021/09/21 02:58:25;;;;;;;12.85;8.60;;;11.20;99.90;;;;;;5000946;28;20095;-71
2021/09/21 03:00:54;;;;;;;15.85;10.15;;;11.20;99.90;;;;;;5031442;28;20057;-71
2021/09/21 03:03:25;;;;;;;15.68;10.38;;;11.20;99.90;;;;;;5022889;28;20124;-71
2021/09/21 03:06:19;;;;;;;15.48;10.65;;;11.20;99.90;;;;;;5034856;28;20500;-71
2021/09/21 03:08:43;;;;;;;15.55;10.88;;;11.10;99.90;;;;;;5032205;28;20431;-71
2021/09/21 03:18:52;;;;;;;14.57;10.80;;;11.10;99.90;;;;;;5017772;28;20060;-71
2021/09/21 03:21:20;;;;;;;13.90;9.80;;;11.10;99.90;;;;;;5030917;28;20076;-71
2021/09/21 03:23:47;;;;;;;17.38;11.38;;;11.00;99.90;;;;;;5032396;28;20045;-71
2021/09/21 03:26:14;;;;;;;16.88;11.63;;;11.10;99.90;;;;;;5014785;28;20156;-71
2021/09/21 03:28:42;;;;;;;17.65;12.02;;;11.10;99.90;;;;;;5012445;28;20038;-71
2021/09/21 03:31:09;;;;;;;15.65;11.80;;;11.10;99.90;;;;;;5005869;28;20073;-71
2021/09/21 03:33:37;;;;;;;17.77;12.15;;;11.00;99.90;;;;;;5020553;28;20059;-71
2021/09/21 03:36:04;;;;;;;17.02;12.27;;;11.10;99.90;;;;;;5042795;28;20563;-71
2021/09/21 03:38:32;;;;;;;16.65;11.82;;;11.10;99.90;;;;;;5031899;28;20040;-71
2021/09/21 03:40:59;;;;;;;17.02;10.70;;;11.10;99.90;;;;;;5043983;28;20045;-71
2021/09/21 03:43:27;;;;;;;13.88;10.65;;;11.10;99.90;;;;;;5037471;28;20085;-71
2021/09/21 03:45:54;;;;;;;14.73;11.32;;;11.10;99.90;;;;;;5038837;28;20045;-71
2021/09/21 03:48:21;;;;;;;14.70;11.25;;;11.10;99.90;;;;;;5036099;28;20224;-71
2021/09/21 03:50:49;;;;;;;16.52;12.18;;;11.10;99.90;;;;;;5026567;28;20404;-71
2021/09/21 03:53:16;;;;;;;16.40;11.73;;;11.10;99.90;;;;;;5021137;28;20381;-71
2021/09/21 03:55:43;;;;;;;17.70;11.23;;;11.00;99.90;;;;;;5027210;28;20503;-71
2021/09/21 03:58:11;;;;;;;16.05;11.02;;;11.00;99.90;;;;;;5016863;28;20145;-71
2021/09/21 04:00:38;;;;;;;16.38;11.82;;;11.00;99.90;;;;;;5029844;28;20045;-71
2021/09/21 04:03:07;;;;;;;13.60;10.93;;;11.00;99.90;;;;;;5038673;28;20052;-71
2021/09/21 04:05:34;;;;;;;14.65;10.30;;;11.00;99.90;;;;;;5037259;28;20042;-71
2021/09/21 04:08:01;;;;;;;16.98;10.88;;;11.00;99.90;;;;;;5041331;28;20044;-71
2021/09/21 04:10:29;;;;;;;14.82;11.25;;;11.00;99.90;;;;;;5034317;28;20053;-71
2021/09/21 04:12:56;;;;;;;19.80;13.43;;;11.00;99.90;;;;;;5020548;28;20080;-71
2021/09/21 04:15:23;;;;;;;15.70;11.07;;;11.00;99.90;;;;;;5042824;28;20440;-71
2021/09/21 04:17:51;;;;;;;13.65;10.55;;;11.00;99.90;;;;;;5028818;28;20113;-71
2021/09/21 04:20:18;;;;;;;14.27;10.45;;;11.00;99.90;;;;;;5045387;28;20040;-71
2021/09/21 04:22:45;;;;;;;13.07;9.82;;;11.00;99.90;;;;;;5046112;28;20045;-71
2021/09/21 04:25:13;;;;;;;14.30;10.60;;;11.00;99.90;;;;;;5039003;28;20078;-71
2021/09/21 04:27:40;;;;;;;15.07;10.32;;;11.00;99.90;;;;;;5029223;28;20129;-71
2021/09/21 04:30:09;;;;;;;12.13;9.60;;;11.00;99.90;;;;;;5027800;28;20054;-71
2021/09/21 04:32:38;;;;;;;12.32;8.90;;;11.00;99.90;;;;;;5023625;28;20116;-71
2021/09/21 04:35:06;;;;;;;12.88;9.20;;;11.00;99.90;;;;;;5020433;28;20047;-71
2021/09/21 04:37:33;;;;;;;13.20;9.27;;;11.00;99.90;;;;;;5035153;28;20045;-71
2021/09/21 04:40:00;;;;;;;12.98;9.90;;;11.00;99.90;;;;;;5041609;28;20128;-71
2021/09/21 04:42:28;;;;;;;13.70;8.95;;;11.10;99.90;;;;;;5024875;28;20069;-71
2021/09/21 04:44:56;;;;;;;11.48;9.95;;;11.10;99.90;;;;;;5022012;28;20041;-71
2021/09/21 04:47:23;;;;;;;15.00;10.38;;;11.00;99.90;;;;;;5044868;28;20532;-71
2021/09/21 04:49:51;;;;;;;14.13;10.35;;;11.00;99.90;;;;;;5026071;28;20046;-71
2021/09/21 04:52:18;;;;;;;13.27;10.27;;;11.00;99.90;;;;;;5034448;28;20496;-71
2021/09/21 04:54:45;;;;;;;12.70;9.70;;;10.90;99.90;;;;;;5034994;28;20399;-71
2021/09/21 04:57:13;;;;;;;13.43;10.30;;;10.90;99.90;;;;;;5033173;28;20036;-71
2021/09/21 04:59:40;;;;;;;14.25;10.30;;;10.90;99.90;;;;;;5040027;28;20487;-71
2021/09/21 05:02:07;;;;;;;13.75;10.60;;;10.90;99.90;;;;;;5015361;28;20141;-71
2021/09/21 05:04:35;;;;;;;14.10;10.52;;;10.90;99.90;;;;;;5028384;28;20057;-72
2021/09/21 05:07:02;;;;;;;14.25;10.77;;;10.90;99.90;;;;;;5040343;28;20464;-70
2021/09/21 05:09:30;;;;;;;18.67;13.20;;;10.90;99.90;;;;;;5033522;28;20060;-71
2021/09/21 05:11:57;;;;;;;13.07;10.50;;;11.00;99.90;;;;;;5040330;28;20132;-70
2021/09/21 05:14:24;;;;;;;12.73;9.80;;;11.00;99.90;;;;;;5039522;28;20037;-71
2021/09/21 05:16:51;;;;;;;11.13;9.57;;;11.10;99.90;;;;;;5042595;28;20819;-70
2021/09/21 05:19:19;;;;;;;11.68;9.18;;;11.10;99.90;;;;;;5032120;28;20549;-72
2021/09/21 05:21:46;;;;;;;12.65;9.88;;;11.10;99.90;;;;;;5035750;28;20083;-71
2021/09/21 05:24:13;;;;;;;13.82;10.15;;;11.10;99.90;;;;;;5038671;28;20048;-71
2021/09/21 05:26:41;;;;;;;14.38;10.20;;;11.20;99.90;;;;;;5038002;28;20055;-71
2021/09/21 05:29:08;;;;;;;14.10;9.70;;;11.20;99.90;;;;;;5039910;28;20528;-71
2021/09/21 05:31:35;;;;;;;11.45;8.45;;;11.20;99.90;;;;;;5040725;28;20073;-71
2021/09/21 05:34:03;;;;;;;12.60;9.23;;;11.20;99.90;;;;;;5028179;28;20080;-71
2021/09/21 05:36:31;;;;;;;13.18;9.40;;;11.20;99.90;;;;;;5022945;28;20045;-71
2021/09/21 05:38:58;;;;;;;15.35;9.23;;;11.20;99.90;;;;;;5012777;28;20042;-71
2021/09/21 05:41:26;;;;;;;13.48;10.05;;;11.30;99.90;;;;;;4992702;28;20042;-73
2021/09/21 05:43:53;;;;;;;11.80;9.25;;;11.30;99.90;;;;;;5012294;28;20049;-71
2021/09/21 05:46:20;;;;;;;11.55;9.18;;;11.30;99.90;;;;;;5013618;28;20452;-72
2021/09/21 05:48:50;;;;;;;12.82;9.52;;;11.40;99.90;;;;;;5036024;28;20103;-72
2021/09/21 05:51:17;;;;;;;12.32;9.70;;;11.30;99.90;;;;;;5031069;28;20045;-72
2021/09/21 05:53:44;;;;;;;14.77;9.85;;;11.40;99.90;;;;;;5029507;28;20049;-71
2021/09/21 05:56:11;;;;;;;11.77;8.77;;;11.40;99.90;;;;;;5021551;28;20057;-70
2021/09/21 05:58:39;;;;;;;14.60;11.38;;;11.40;99.90;;;;;;5014869;28;20072;-70
2021/09/21 06:01:06;;;;;;;14.88;10.23;;;11.50;99.90;;;;;;5013036;28;20040;-70
2021/09/21 06:03:35;;;;;;;14.30;9.77;;;11.60;99.90;;;;;;5013807;28;20057;-70
2021/09/21 06:06:02;;;;;;;12.88;10.07;;;11.60;99.90;;;;;;5013709;28;20079;-70
2021/09/21 06:08:30;;;;;;;12.57;10.23;;;11.70;99.90;;;;;;5030054;28;20055;-70
2021/09/21 06:10:57;;;;;;;15.35;10.48;;;11.80;99.90;;;;;;5009040;28;20046;-70
2021/09/21 06:13:25;;;;;;;18.10;11.35;;;11.80;99.90;;;;;;5035233;28;20111;-70
2021/09/21 06:15:52;;;;;;;12.75;9.27;;;11.80;99.90;;;;;;5017808;28;20069;-70
2021/09/21 06:18:19;;;;;;;14.40;9.95;;;11.90;99.90;;;;;;5031073;28;20496;-70
2021/09/21 06:20:47;;;;;;;22.05;10.93;;;12.00;99.90;;;;;;5008612;28;20108;-70
2021/09/21 06:23:18;;;;;;;18.33;10.55;;;12.10;99.90;;;;;;5019657;28;20048;-70
2021/09/21 06:25:46;;;;;;;17.25;12.00;;;12.10;99.90;;;;;;5007781;28;20112;-70
2021/09/21 06:28:13;;;;;;;19.90;10.95;;;12.20;99.90;;;;;;5022646;28;20430;-71
2021/09/21 06:30:40;;;;;;;13.95;9.63;;;12.20;99.90;;;;;;5027310;28;20049;-69
2021/09/21 06:33:08;;;;;;;15.20;10.50;;;12.30;99.90;;;;;;5026994;28;20107;-69
2021/09/21 06:35:35;;;;;;;13.00;10.25;;;12.50;99.90;;;;;;5028773;28;20124;-69
2021/09/21 06:38:04;;;;;;;15.57;10.80;;;12.60;99.90;;;;;;5027380;28;20393;-69
2021/09/21 06:40:32;;;;;;;14.82;9.88;;;12.70;99.90;;;;;;5011271;28;20100;-69
2021/09/21 06:42:59;;;;;;;13.65;10.30;;;12.70;99.90;;;;;;5028146;28;20049;-70
2021/09/21 06:45:27;;;;;;;16.95;11.93;;;12.80;99.90;;;;;;5024969;28;20041;-69
2021/09/21 06:47:54;;;;;;;14.77;11.13;;;13.00;99.90;;;;;;5014964;28;20053;-70
2021/09/21 06:50:22;;;;;;;12.20;9.15;;;13.00;99.90;;;;;;5027622;28;20041;-69
2021/09/21 06:52:49;;;;;;;13.93;9.52;;;13.00;99.90;;;;;;5028038;28;20091;-70
2021/09/21 06:55:17;;;;;;;13.45;10.02;;;13.10;99.90;;;;;;4991663;28;20081;-70
2021/09/21 06:57:52;;;;;;;13.50;10.43;;;13.20;99.90;;;;;;5027952;28;20512;-70
2021/09/21 07:00:21;;;;;;;13.98;10.00;;;13.30;99.90;;;;;;5029130;28;20064;-70
2021/09/21 07:02:53;;;;;;;14.18;10.35;;;13.30;99.90;;;;;;5011083;28;20098;-70
2021/09/21 07:05:22;;;;;;;19.52;11.50;;;13.40;99.90;;;;;;5029308;28;20045;-71
2021/09/21 07:07:50;;;;;;;15.02;9.65;;;13.40;99.90;;;;;;5030274;28;20392;-70
2021/09/21 07:10:20;;;;;;;12.10;9.35;;;13.60;99.90;;;;;;5029625;28;20467;-70
2021/09/21 07:12:47;;;;;;;14.95;9.02;;;13.70;99.90;;;;;;5028826;28;20049;-69
2021/09/21 07:15:15;;;;;;;12.95;8.93;;;13.60;99.90;;;;;;5033285;28;20464;-69
2021/09/21 07:17:42;;;;;;;10.00;8.20;;;13.70;99.90;;;;;;5034165;28;20576;-69
2021/09/21 07:20:10;;;;;;;11.75;8.95;;;13.80;99.90;;;;;;5028929;28;20532;-69
2021/09/21 07:22:38;;;;;;;14.65;9.20;;;13.90;99.90;;;;;;5008320;28;20135;-70
2021/09/21 07:25:07;;;;;;;12.15;8.90;;;14.00;99.90;;;;;;5020022;28;20613;-69
2021/09/21 07:27:34;;;;;;;12.45;9.20;;;14.10;99.90;;;;;;5033189;28;20041;-70
2021/09/21 07:30:04;;;;;;;14.20;9.55;;;14.20;99.90;;;;;;5034462;28;20392;-69
2021/09/21 07:32:33;;;;;;;11.80;9.02;;;14.30;99.90;;;;;;5032291;28;20100;-69
2021/09/21 07:35:02;;;;;;;10.82;8.88;;;14.40;99.90;;;;;;5040294;28;20412;-70
2021/09/21 07:37:30;;;;;;;14.38;10.52;;;14.50;99.90;;;;;;5024633;28;20446;-69
2021/09/21 07:39:57;;;;;;;12.55;9.30;;;14.50;99.90;;;;;;5022818;28;20123;-69
2021/09/21 07:42:24;;;;;;;12.77;9.43;;;14.60;99.90;;;;;;5036159;28;20049;-70
2021/09/21 07:44:53;;;;;;;12.45;8.75;;;14.70;99.90;;;;;;5027756;28;20045;-69
2021/09/21 07:47:21;;;;;;;13.25;9.35;;;14.80;99.90;;;;;;5036689;28;20047;-69
2021/09/21 07:49:49;;;;;;;10.63;8.32;;;14.90;99.90;;;;;;5022140;28;20074;-69
2021/09/21 07:52:17;;;;;;;11.05;8.05;;;15.00;99.90;;;;;;5024556;28;20505;-69
2021/09/21 07:54:45;;;;;;;12.85;8.43;;;15.10;99.90;;;;;;5026673;28;20122;-69
2021/09/21 07:57:12;;;;;;;12.98;8.15;;;15.20;99.90;;;;;;5028426;28;20041;-69
2021/09/21 07:59:42;;;;;;;13.18;8.25;;;15.30;99.90;;;;;;5048730;28;20071;-69
2021/09/21 08:02:12;;;;;;;13.32;9.82;;;15.40;99.90;;;;;;5034230;28;20527;-69
2021/09/21 08:04:42;;;;;;;14.50;8.98;;;15.30;99.90;;;;;;5018801;28;20420;-69
2021/09/21 08:07:10;;;;;;;13.32;8.23;;;15.30;99.90;;;;;;5039741;28;20049;-70
2021/09/21 08:09:37;;;;;;;9.68;7.70;;;15.40;99.90;;;;;;5036373;28;20913;-70
2021/09/21 08:12:05;;;;;;;12.77;8.02;;;15.70;99.90;;;;;;5019544;28;20120;-70
2021/09/21 08:14:37;;;;;;;13.43;8.02;;;15.90;99.90;;;;;;5044556;28;20571;-70
2021/09/21 08:17:06;;;;;;;;;;;16.00;99.90;;;;;;5032525;28;20037;-70
2021/09/21 08:19:35;;;;;;;14.60;8.10;;;16.00;99.90;;;;;;5048586;28;19971;-70
2021/09/21 08:22:02;;;;;;;9.48;7.45;;;16.20;99.90;;;;;;5023595;28;20056;-70
2021/09/21 08:24:30;;;;;;;10.63;7.45;;;16.40;99.90;;;;;;5018317;28;20401;-70
2021/09/21 08:26:57;;;;;;;14.52;8.18;;;16.40;99.90;;;;;;5021000;28;20037;-70
2021/09/21 08:29:25;;;;;;;10.85;8.18;;;16.40;99.90;;;;;;5014386;28;20042;-70
2021/09/21 08:31:52;;;;;;;10.93;8.52;;;16.30;99.90;;;;;;5034267;28;20069;-70
2021/09/21 08:34:19;;;;;;;11.52;7.75;;;16.20;99.90;;;;;;5023196;28;20125;-70
2021/09/21 08:36:49;;;;;;;10.82;8.18;;;16.40;99.90;;;;;;5024981;28;20075;-69
2021/09/21 08:39:18;;;;;;;11.75;8.18;;;16.50;99.90;;;;;;5030466;28;20140;-69
2021/09/21 08:41:50;;;;;;;14.18;8.77;;;16.70;99.90;;;;;;5040580;28;20345;-69
2021/09/21 08:44:20;;;;;;;12.93;8.10;;;16.80;99.90;;;;;;5038289;28;20516;-69
2021/09/21 08:46:48;;;;;;;10.73;8.35;;;16.90;99.90;;;;;;5040710;28;20579;-69
2021/09/21 08:49:16;;;;;;;16.63;11.23;;;17.00;99.90;;;;;;5021567;28;20118;-69
2021/09/21 08:51:44;;;;;;;18.98;9.60;;;16.90;99.90;;;;;;5027982;28;20077;-69
2021/09/21 08:54:11;;;;;;;10.77;8.50;;;16.80;99.90;;;;;;5035666;28;20061;-69
2021/09/21 08:56:40;;;;;;;8.95;7.28;;;16.80;99.90;;;;;;5025293;28;20064;-69
2021/09/21 08:59:12;;;;;;;11.48;7.90;;;16.70;99.90;;;;;;5040382;28;20051;-69
2021/09/21 09:01:43;;;;;;;11.13;8.05;;;16.70;99.90;;;;;;5039461;28;20044;-69
2021/09/21 09:04:13;;;;;;;16.35;8.52;;;16.80;99.90;;;;;;5022963;28;20033;-69
2021/09/21 09:06:51;;;;;;;12.30;7.95;;;16.90;99.90;;;;;;5033264;28;20099;-69
2021/09/21 09:09:21;;;;;;;12.73;7.55;;;17.00;99.90;;;;;;5016012;28;20096;-69
2021/09/21 09:11:55;;;;;;;11.40;7.30;;;17.30;99.90;;;;;;5018332;28;20821;-69
2021/09/21 09:14:25;;;;;;;10.23;7.25;;;17.60;99.90;;;;;;5029191;28;20136;-69
2021/09/21 09:16:58;;;;;;;11.77;7.40;;;17.90;99.90;;;;;;5042317;28;20140;-69
2021/09/21 09:19:35;;;;;;;10.32;6.75;;;18.10;99.90;;;;;;5039667;28;20103;-69
2021/09/21 09:22:13;;;;;;;15.95;7.68;;;18.20;99.90;;;;;;5041797;28;20542;-69
2021/09/21 09:24:56;;;;;;;13.20;7.00;;;18.30;99.90;;;;;;5017069;28;20500;-69
2021/09/21 09:27:46;;;;;;;30.15;7.70;;;18.60;99.90;;;;;;5014371;28;20042;-69
2021/09/21 09:30:24;;;;;;;8.50;6.10;;;18.90;99.90;;;;;;5025468;28;20056;-69
2021/09/21 09:33:00;;;;;;;7.70;6.30;;;19.30;99.90;;;;;;5024471;28;20042;-69
2021/09/21 09:35:39;;;;;;;8.73;6.07;;;19.40;99.90;;;;;;5021446;28;20626;-70
2021/09/21 09:38:08;;;;;;;13.18;6.57;;;19.50;99.90;;;;;;5010790;28;20546;-69
2021/09/21 09:40:47;;;;;;;8.40;5.93;;;19.70;99.90;;;;;;5038369;28;20135;-69
2021/09/21 09:43:16;;;;;;;9.35;6.45;;;19.90;99.90;;;;;;5035558;28;20041;-69
2021/09/21 09:45:51;;;;;;;10.32;5.57;;;19.70;99.90;;;;;;5039632;28;20111;-69
2021/09/21 09:48:20;;;;;;;11.85;6.70;;;19.90;99.90;;;;;;5041088;28;20041;-69
2021/09/21 09:50:53;;;;;;;11.63;6.47;;;19.70;99.90;;;;;;5019888;28;20048;-69
2021/09/21 09:53:25;;;;;;;9.80;6.00;;;19.70;99.90;;;;;;5018814;28;20152;-70
2021/09/21 09:55:58;;;;;;;9.02;6.65;;;19.60;99.90;;;;;;5031502;28;20036;-71
2021/09/21 09:58:26;;;;;;;11.23;6.93;;;19.80;99.90;;;;;;5032278;28;20124;-70
2021/09/21 10:00:57;;;;;;;9.48;6.95;;;19.70;99.90;;;;;;5030958;28;20128;-70
2021/09/21 10:03:26;;;;;;;10.70;6.78;;;19.70;99.90;;;;;;5036559;28;20128;-70
2021/09/21 10:05:53;;;;;;;8.68;5.60;;;19.60;99.90;;;;;;5035760;28;20557;-70
2021/09/21 10:08:21;;;;;;;9.40;6.65;;;19.80;99.90;;;;;;5035260;28;20132;-70
2021/09/21 10:10:49;;;;;;;9.48;6.80;;;20.10;99.90;;;;;;5032862;28;20091;-70
2021/09/21 10:13:18;;;;;;;8.13;6.13;;;20.50;99.90;;;;;;5015651;28;20044;-70
2021/09/21 10:15:49;;;;;;;7.00;5.55;;;20.70;99.90;;;;;;5028153;28;20042;-70
2021/09/21 10:18:21;;;;;;;8.98;5.72;;;20.90;99.90;;;;;;5039558;28;20073;-69
2021/09/21 10:20:59;;;;;;;;;;;21.00;99.90;;;;;;4995994;28;20045;-70
2021/09/21 10:23:34;;;;;;;9.65;6.47;;;21.10;99.90;;;;;;5021536;28;19924;-69
2021/09/21 10:26:13;;;;;;;11.98;7.03;;;20.90;99.90;;;;;;5035491;28;20041;-69
2021/09/21 10:28:44;;;;;;;6.75;5.47;;;20.70;99.90;;;;;;5010358;28;20128;-69
2021/09/21 10:31:14;;;;;;;9.18;5.90;;;20.60;99.90;;;;;;5015106;28;20038;-69
2021/09/21 10:33:42;;;;;;;7.28;5.70;;;20.00;99.90;;;;;;5024287;28;20045;-69
2021/09/21 10:36:44;;;;;;;8.82;5.60;;;19.50;99.90;;;;;;5022398;28;20423;-69
2021/09/21 10:39:13;;;;;;;7.87;6.10;;;19.00;99.90;;;;;;5027703;28;20056;-69
2021/09/21 10:41:58;;;;;;;7.60;6.00;;;18.60;99.90;;;;;;5027624;28;20585;-69
2021/09/21 10:44:27;;;;;;;8.45;6.15;;;18.50;99.90;;;;;;5020180;28;20085;-69
2021/09/21 10:47:03;;;;;;;8.85;5.97;;;18.50;99.90;;;;;;5033963;28;20068;-69
2021/09/21 10:49:43;;;;;;;7.20;5.72;;;18.30;99.90;;;;;;5024426;28;20080;-69
2021/09/21 10:52:13;;;;;;;10.93;6.25;;;18.10;99.90;;;;;;5027372;28;20044;-69
2021/09/21 10:54:51;;;;;;;11.00;5.82;;;18.10;99.90;;;;;;5022680;28;20041;-69
2021/09/21 10:57:34;;;;;;;8.45;5.90;;;18.00;99.90;;;;;;5016419;28;20093;-69
2021/09/21 11:00:01;;;;;;;8.43;6.40;;;18.00;99.90;;;;;;5028525;28;20095;-70
2021/09/21 11:02:35;;;;;;;9.88;5.80;;;18.10;99.90;;;;;;5013414;28;20071;-70
2021/09/21 11:05:08;;;;;;;10.10;6.85;;;18.30;99.90;;;;;;5011000;28;20087;-70
2021/09/21 11:07:37;;;;;;;10.32;5.50;;;18.60;99.90;;;;;;5019393;28;20076;-70
2021/09/21 11:10:06;;;;;;;8.43;5.55;;;18.90;99.90;;;;;;5019889;28;20045;-70
2021/09/21 11:12:34;;;;;;;7.72;5.55;;;19.50;99.90;;;;;;5025566;28;20144;-71
2021/09/21 11:15:08;;;;;;;6.97;5.05;;;19.90;99.90;;;;;;5036348;28;20098;-70
2021/09/21 11:17:37;;;;;;;9.38;5.47;;;20.20;99.90;;;;;;5033461;28;20060;-70
2021/09/21 11:20:05;;;;;;;6.82;5.50;;;20.50;99.90;;;;;;5019194;28;20060;-70
2021/09/21 11:22:33;;;;;;;7.82;5.30;;;21.00;99.90;;;;;;5007810;28;20046;-70
2021/09/21 11:25:06;;;;;;;7.38;5.60;;;21.20;99.90;;;;;;5013190;28;20458;-70
2021/09/21 11:27:36;;;;;;;7.13;5.70;;;21.20;99.90;;;;;;5010565;28;20452;-70
2021/09/21 11:30:10;;;;;;;7.38;5.50;;;21.20;99.90;;;;;;5008917;28;20049;-70
2021/09/21 11:32:37;;;;;;;7.80;4.80;;;21.20;99.90;;;;;;5007548;28;20104;-70
2021/09/21 11:35:08;;;;;;;9.10;5.10;;;21.20;99.90;;;;;;5008898;28;20113;-70
2021/09/21 11:37:36;;;;;;;8.40;5.25;;;21.40;99.90;;;;;;5013215;28;20160;-70
2021/09/21 11:40:05;;;;;;;11.73;4.90;;;21.60;99.90;;;;;;4991660;28;20073;-70
2021/09/21 11:42:34;;;;;;;7.22;5.00;;;21.90;99.70;;;;;;5012846;28;20049;-69
2021/09/21 11:45:11;;;;;;;8.90;5.07;;;22.00;98.90;;;;;;5016963;28;20044;-69
2021/09/21 11:47:42;;;;;;;9.93;5.15;;;22.30;98.10;;;;;;5009731;28;20132;-69
2021/09/21 11:50:22;;;;;;;10.93;5.20;;;22.60;97.90;;;;;;5017248;28;20504;-69
2021/09/21 11:52:57;;;;;;;7.20;5.28;;;22.80;96.90;;;;;;5012101;28;20128;-69
2021/09/21 11:55:47;;;;;;;7.40;4.78;;;23.10;96.40;;;;;;5027507;28;20033;-69
2021/09/21 11:58:15;;;;;;;7.75;4.35;;;23.60;95.00;;;;;;5011362;28;20400;-70
2021/09/21 12:00:51;;;;;;;6.00;4.25;;;23.60;94.50;;;;;;5022797;28;20137;-69
2021/09/21 12:03:21;;;;;;;6.20;4.30;;;23.80;93.90;;;;;;5020922;28;20042;-69
2021/09/21 12:05:51;;;;;;;7.88;4.90;;;24.40;93.40;;;;;;5010022;28;20136;-69
2021/09/21 12:08:20;;;;;;;7.63;5.13;;;25.10;92.40;;;;;;5027262;28;20468;-70
2021/09/21 12:10:59;;;;;;;5.55;4.30;;;25.70;91.00;;;;;;5021348;28;20090;-70
2021/09/21 12:13:27;;;;;;;10.27;4.88;;;26.10;88.90;;;;;;5017951;28;20140;-70
2021/09/21 12:15:58;;;;;;;11.27;5.18;;;26.50;87.50;;;;;;5032562;28;20116;-70
2021/09/21 12:18:26;;;;;;;7.32;4.82;;;26.60;85.90;;;;;;5040388;28;20059;-70
2021/09/21 12:20:57;;;;;;;8.52;4.38;;;26.70;84.00;;;;;;5036219;28;20134;-70
2021/09/21 12:23:28;;;;;;;7.40;4.00;;;26.90;83.10;;;;;;5037698;28;20052;-70
2021/09/21 12:25:58;;;;;;;17.02;4.75;;;27.50;81.10;;;;;;5040499;28;20410;-70
2021/09/21 12:28:39;;;;;;;7.93;4.43;;;27.40;79.40;;;;;;5029930;28;20052;-70
2021/09/21 12:31:17;;;;;;;7.93;4.28;;;26.80;78.80;;;;;;5015967;28;20092;-70
2021/09/21 12:33:48;;;;;;;7.45;4.70;;;26.20;79.60;;;;;;5012695;28;20045;-70
2021/09/21 12:36:23;;;;;;;5.57;4.07;;;25.50;79.70;;;;;;5026097;28;20045;-70
2021/09/21 12:39:15;;;;;;;5.75;4.68;;;24.90;79.60;;;;;;5030286;28;20045;-70
2021/09/21 12:41:45;;;;;;;6.93;4.97;;;24.30;82.20;;;;;;5035654;28;20144;-70
2021/09/21 12:44:15;;;;;;;9.88;4.70;;;23.70;83.40;;;;;;4996255;28;20374;-70
2021/09/21 12:46:48;;;;;;;8.98;5.30;;;23.90;83.70;;;;;;5037484;28;20052;-70
2021/09/21 12:49:17;;;;;;;8.75;4.60;;;23.80;83.40;;;;;;5041454;28;20690;-70
2021/09/21 12:51:56;;;;;;;8.55;5.22;;;23.40;84.10;;;;;;5010824;28;20161;-70
2021/09/21 12:54:25;;;;;;;8.63;5.22;;;23.30;84.30;;;;;;5010812;28;20041;-70
2021/09/21 12:56:57;;;;;;;6.50;5.10;;;23.10;84.50;;;;;;5028772;28;20038;-70
2021/09/21 12:59:28;;;;;;;7.50;4.95;;;23.00;84.30;;;;;;5031943;28;20064;-70
2021/09/21 13:01:56;;;;;;;7.25;4.93;;;23.20;84.90;;;;;;5030563;28;20145;-70
2021/09/21 13:04:39;;;;;;;7.78;5.28;;;23.50;84.90;;;;;;5036111;28;20080;-70